createdAt,value
2023-04-18T00:00:12.582Z,94075.66
2023-04-18T00:01:09.887Z,94069.21
2023-04-18T00:01:44.809Z,94071.58
2023-04-18T00:02:18.564Z,94070.36
2023-04-18T00:02:54.479Z,94068.04
2023-04-18T00:03:30.273Z,94072.13
2023-04-18T00:04:05.274Z,94070.80
2023-04-18T00:04:38.978Z,94068.84
2023-04-18T00:05:13.220Z,94069.25
2023-04-18T00:05:48.231Z,94067.66
2023-04-18T00:06:22.386Z,94066.83
2023-04-18T00:06:56.039Z,94066.20
2023-04-18T00:07:29.343Z,94067.23
2023-04-18T00:08:03.324Z,94068.28
2023-04-18T00:08:36.916Z,94066.64
2023-04-18T00:09:10.661Z,94064.91
2023-04-18T00:09:44.712Z,94069.80
2023-04-18T00:10:18.517Z,94066.35
2023-04-18T00:10:51.967Z,94063.73
2023-04-18T00:11:27.352Z,94069.27
2023-04-18T00:12:05.777Z,94062.55
2023-04-18T00:12:40.850Z,94065.70
2023-04-18T00:13:14.230Z,94060.80
2023-04-18T00:13:47.688Z,94065.06
2023-04-18T00:14:20.993Z,94063.83
2023-04-18T00:14:55.113Z,94066.27
2023-04-18T00:15:29.596Z,94066.02
2023-04-18T00:16:04.254Z,94062.98
2023-04-18T00:16:39.049Z,94064.59
2023-04-18T00:17:13.612Z,94065.84
2023-04-18T00:17:48.499Z,94067.40
2023-04-18T00:18:22.241Z,94069.51
2023-04-18T00:18:57.380Z,94069.11
2023-04-18T00:19:30.890Z,94066.64
2023-04-18T00:20:07.204Z,94064.41
2023-04-18T00:20:40.688Z,94062.06
2023-04-18T00:21:13.957Z,94067.61
2023-04-18T00:21:47.253Z,94064.51
2023-04-18T00:22:23.720Z,94065.83
2023-04-18T00:22:57.216Z,94063.73
2023-04-18T00:23:30.471Z,94066.30
2023-04-18T00:24:03.813Z,94063.16
2023-04-18T00:24:37.257Z,94066.80
2023-04-18T00:25:11.305Z,94067.08
2023-04-18T00:25:44.618Z,94068.39
2023-04-18T00:26:17.887Z,94064.42
2023-04-18T00:26:51.071Z,94064.41
2023-04-18T00:27:24.455Z,94062.58
2023-04-18T00:28:01.370Z,94066.30
2023-04-18T00:28:35.305Z,94060.38
2023-04-18T00:29:08.601Z,94062.50
2023-04-18T00:29:42.769Z,94066.98
2023-04-18T00:30:16.182Z,94065.06
2023-04-18T00:30:49.471Z,94065.73
2023-04-18T00:31:22.888Z,94062.41
2023-04-18T00:31:57.511Z,94063.72
2023-04-18T00:32:30.804Z,94059.84
2023-04-18T00:33:05.737Z,94062.32
2023-04-18T00:34:38.425Z,94049.74
2023-04-18T00:35:11.733Z,94063.84
2023-04-18T00:35:45.014Z,94065.07
2023-04-18T00:36:21.076Z,94061.88
2023-04-18T00:36:57.481Z,94065.09
2023-04-18T00:37:39.991Z,94061.59
2023-04-18T00:38:17.384Z,94063.80
2023-04-18T00:38:50.766Z,94060.50
2023-04-18T00:39:24.095Z,94066.55
2023-04-18T00:39:58.352Z,94065.41
2023-04-18T00:40:31.863Z,94063.58
2023-04-18T00:41:05.524Z,94065.99
2023-04-18T00:41:38.975Z,94065.02
2023-04-18T00:42:12.491Z,94062.19
2023-04-18T00:42:46.012Z,94063.01
2023-04-18T00:43:23.829Z,94064.31
2023-04-18T00:43:57.258Z,94059.89
2023-04-18T00:44:31.747Z,94057.33
2023-04-18T00:45:05.852Z,94063.33
2023-04-18T00:45:41.879Z,94058.63
2023-04-18T00:46:17.343Z,94058.05
2023-04-18T00:46:51.514Z,94055.16
2023-04-18T00:47:26.049Z,94045.52
2023-04-18T00:47:59.375Z,94056.36
2023-04-18T00:48:32.705Z,94053.50
2023-04-18T00:49:07.430Z,94051.90
2023-04-18T00:49:40.868Z,94054.19
2023-04-18T00:50:15.200Z,94047.27
2023-04-18T00:50:49.027Z,94046.78
2023-04-18T00:51:22.500Z,94056.71
2023-04-18T00:51:57.005Z,94052.84
2023-04-18T00:52:32.093Z,94054.88
2023-04-18T00:53:06.363Z,94054.15
2023-04-18T00:53:42.014Z,94053.55
2023-04-18T00:54:18.316Z,94054.30
2023-04-18T00:54:51.895Z,94055.05
2023-04-18T00:55:25.828Z,94053.15
2023-04-18T00:55:59.412Z,94050.30
2023-04-18T00:56:36.296Z,94051.60
2023-04-18T00:57:10.010Z,94049.46
2023-04-18T00:57:44.568Z,94052.85
2023-04-18T00:58:18.450Z,94048.37
2023-04-18T00:58:52.186Z,94050.50
2023-04-18T00:59:25.994Z,94053.48
2023-04-18T01:00:08.814Z,94052.32
2023-04-18T01:00:42.996Z,94052.36
2023-04-18T01:01:19.247Z,94054.59
2023-04-18T01:01:53.075Z,94049.64
2023-04-18T01:02:28.730Z,94050.79
2023-04-18T01:03:03.965Z,94047.71
2023-04-18T01:03:37.976Z,94049.73
2023-04-18T01:04:14.133Z,94052.10
2023-04-18T01:04:48.098Z,94047.50
2023-04-18T01:05:23.076Z,94047.02
2023-04-18T01:05:57.673Z,94049.66
2023-04-18T01:06:32.209Z,94048.34
2023-04-18T01:07:06.268Z,94042.67
2023-04-18T01:07:42.785Z,94047.41
2023-04-18T01:08:16.478Z,94048.36
2023-04-18T01:08:49.863Z,94044.25
2023-04-18T01:09:25.865Z,94046.50
2023-04-18T01:09:59.678Z,94049.00
2023-04-18T01:10:33.013Z,94046.77
2023-04-18T01:11:06.285Z,94046.83
2023-04-18T01:11:39.789Z,94043.70
2023-04-18T01:12:13.254Z,94046.35
2023-04-18T01:12:46.662Z,94049.02
2023-04-18T01:13:21.302Z,94043.67
2023-04-18T01:14:08.534Z,94043.86
2023-04-18T01:14:43.171Z,94044.09
2023-04-18T01:15:16.477Z,94047.66
2023-04-18T01:15:51.234Z,94044.89
2023-04-18T01:16:24.704Z,94042.67
2023-04-18T01:16:59.026Z,94046.83
2023-04-18T01:17:34.852Z,94044.42
2023-04-18T01:18:09.305Z,94044.48
2023-04-18T01:18:43.586Z,94044.98
2023-04-18T01:19:21.721Z,94045.73
2023-04-18T01:19:57.762Z,94041.23
2023-04-18T01:20:35.482Z,94039.86
2023-04-18T01:21:09.413Z,94042.22
2023-04-18T01:21:44.083Z,94040.66
2023-04-18T01:22:20.204Z,94044.22
2023-04-18T01:22:53.937Z,94041.92
2023-04-18T01:23:27.479Z,94039.55
2023-04-18T01:24:08.102Z,94037.30
2023-04-18T01:24:42.326Z,94035.84
2023-04-18T01:25:16.273Z,94043.39
2023-04-18T01:25:49.753Z,94041.42
2023-04-18T01:26:24.377Z,94035.97
2023-04-18T01:26:58.916Z,94033.98
2023-04-18T01:27:32.854Z,94033.81
2023-04-18T01:28:07.353Z,94035.36
2023-04-18T01:28:42.352Z,94028.38
2023-04-18T01:29:16.108Z,94031.46
2023-04-18T01:29:49.554Z,94028.98
2023-04-18T01:30:22.916Z,94035.39
2023-04-18T01:30:58.331Z,94027.29
2023-04-18T01:31:36.473Z,94035.27
2023-04-18T01:32:09.897Z,94033.55
2023-04-18T01:32:45.293Z,94037.17
2023-04-18T01:33:18.770Z,94031.45
2023-04-18T01:33:53.588Z,94027.56
2023-04-18T01:34:27.400Z,94033.78
2023-04-18T01:35:00.740Z,94035.16
2023-04-18T01:35:34.685Z,94023.73
2023-04-18T01:36:08.176Z,94031.72
2023-04-18T01:36:41.581Z,94031.59
2023-04-18T01:37:17.832Z,94037.82
2023-04-18T01:37:51.136Z,94029.54
2023-04-18T01:38:24.438Z,94031.97
2023-04-18T01:38:58.553Z,94025.46
2023-04-18T01:39:31.954Z,94033.32
2023-04-18T01:40:05.767Z,94030.65
2023-04-18T01:40:39.227Z,94032.14
2023-04-18T01:41:12.621Z,94028.94
2023-04-18T01:41:46.063Z,94026.95
2023-04-18T01:42:19.296Z,94024.52
2023-04-18T01:42:52.717Z,94027.55
2023-04-18T01:43:26.091Z,94028.19
2023-04-18T01:44:00.350Z,94027.50
2023-04-18T01:44:34.072Z,94029.27
2023-04-18T01:45:08.139Z,94024.53
2023-04-18T01:45:41.421Z,94022.23
2023-04-18T01:46:16.012Z,94026.19
2023-04-18T01:46:49.429Z,94019.41
2023-04-18T01:47:22.819Z,94022.73
2023-04-18T01:47:56.414Z,94027.39
2023-04-18T01:48:30.136Z,94028.58
2023-04-18T01:50:44.517Z,94024.14
2023-04-18T01:51:18.382Z,94020.61
2023-04-18T01:51:52.387Z,94026.30
2023-04-18T01:52:28.398Z,94014.37
2023-04-18T01:53:02.244Z,94024.02
2023-04-18T01:53:36.377Z,94018.10
2023-04-18T01:54:10.297Z,94022.97
2023-04-18T01:54:44.335Z,94026.40
2023-04-18T01:55:19.583Z,94020.85
2023-04-18T01:55:53.590Z,94024.42
2023-04-18T01:56:27.363Z,94018.36
2023-04-18T01:57:01.532Z,94023.98
2023-04-18T01:57:38.268Z,94012.42
2023-04-18T01:58:12.193Z,94024.36
2023-04-18T01:58:46.211Z,94026.14
2023-04-18T01:59:20.165Z,94020.20
2023-04-18T01:59:53.980Z,94019.75
2023-04-18T02:00:27.973Z,94024.77
2023-04-18T02:01:02.354Z,94028.61
2023-04-18T02:01:37.021Z,94028.89
2023-04-18T02:02:11.700Z,94025.63
2023-04-18T02:02:46.016Z,94027.77
2023-04-18T02:03:20.446Z,94022.32
2023-04-18T02:03:57.021Z,94025.54
2023-04-18T02:04:31.263Z,94021.95
2023-04-18T02:05:05.721Z,94018.54
2023-04-18T02:05:39.656Z,94022.16
2023-04-18T02:06:15.403Z,94024.59
2023-04-18T02:06:50.407Z,94024.27
2023-04-18T02:07:24.451Z,94027.89
2023-04-18T02:07:58.345Z,94026.25
2023-04-18T02:08:36.134Z,94025.70
2023-04-18T02:09:13.065Z,94015.17
2023-04-18T02:09:49.050Z,94017.19
2023-04-18T02:10:23.456Z,94022.23
2023-04-18T02:10:57.283Z,94022.30
2023-04-18T02:11:31.139Z,94026.35
2023-04-18T02:12:08.284Z,94024.64
2023-04-18T02:12:42.121Z,94021.77
2023-04-18T02:13:17.341Z,94025.13
2023-04-18T02:13:51.062Z,94025.74
2023-04-18T02:14:24.981Z,94018.84
2023-04-18T02:14:59.298Z,94022.64
2023-04-18T02:15:34.293Z,94024.02
2023-04-18T02:16:13.217Z,94025.61
2023-04-18T02:16:46.991Z,94025.73
2023-04-18T02:17:24.205Z,94025.52
2023-04-18T02:18:01.485Z,94025.84
2023-04-18T02:18:35.280Z,94025.23
2023-04-18T02:19:09.026Z,94027.23
2023-04-18T02:19:43.227Z,94027.05
2023-04-18T02:20:17.111Z,94026.50
2023-04-18T02:20:52.346Z,94027.53
2023-04-18T02:21:30.588Z,94027.33
2023-04-18T02:22:04.700Z,94028.42
2023-04-18T02:22:39.802Z,94027.39
2023-04-18T02:23:13.466Z,94026.67
2023-04-18T02:23:47.384Z,94026.31
2023-04-18T02:24:21.228Z,94025.66
2023-04-18T02:24:55.084Z,94026.35
2023-04-18T02:25:29.739Z,94026.15
2023-04-18T02:26:06.617Z,94023.78
2023-04-18T02:26:40.976Z,94024.80
2023-04-18T02:27:14.736Z,94020.40
2023-04-18T02:27:48.507Z,94027.71
2023-04-18T02:28:22.324Z,94025.08
2023-04-18T02:28:56.270Z,94024.19
2023-04-18T02:29:30.821Z,94026.48
2023-04-18T02:30:04.944Z,94025.61
2023-04-18T02:30:40.313Z,94025.67
2023-04-18T02:31:15.656Z,94025.13
2023-04-18T02:31:49.635Z,94025.36
2023-04-18T02:32:23.483Z,94027.44
2023-04-18T02:32:59.938Z,94027.73
2023-04-18T02:33:33.814Z,94027.83
2023-04-18T02:34:09.012Z,94024.27
2023-04-18T02:34:42.848Z,94023.38
2023-04-18T02:35:16.870Z,94023.29
2023-04-18T02:35:50.701Z,94027.13
2023-04-18T02:36:26.433Z,94024.00
2023-04-18T02:37:00.990Z,94019.77
2023-04-18T02:37:35.404Z,94021.39
2023-04-18T02:38:09.137Z,94021.86
2023-04-18T02:38:42.785Z,94024.36
2023-04-18T02:39:16.613Z,94025.15
2023-04-18T02:39:51.195Z,94021.05
2023-04-18T02:40:24.936Z,94023.55
2023-04-18T02:40:58.610Z,94023.02
2023-04-18T02:41:35.224Z,94025.39
2023-04-18T02:42:09.267Z,94025.17
2023-04-18T02:42:43.610Z,94021.51
2023-04-18T02:43:20.325Z,94028.17
2023-04-18T02:43:55.786Z,94028.09
2023-04-18T02:44:29.935Z,94026.59
2023-04-18T02:45:04.035Z,94024.81
2023-04-18T02:45:38.007Z,94028.77
2023-04-18T02:46:12.817Z,94028.90
2023-04-18T02:46:47.881Z,94025.24
2023-04-18T02:47:22.081Z,94027.73
2023-04-18T02:47:56.831Z,94025.45
2023-04-18T02:48:30.956Z,94028.81
2023-04-18T02:49:05.832Z,94027.07
2023-04-18T02:49:39.719Z,94028.22
2023-04-18T02:50:13.353Z,94027.59
2023-04-18T02:50:47.105Z,94030.14
2023-04-18T02:51:20.834Z,94026.38
2023-04-18T02:51:56.241Z,94026.48
2023-04-18T02:52:31.307Z,94024.96
2023-04-18T02:53:05.235Z,94027.23
2023-04-18T02:53:49.025Z,94031.91
2023-04-18T02:54:23.712Z,94028.25
2023-04-18T02:55:11.423Z,94023.88
2023-04-18T02:55:47.235Z,94027.05
2023-04-18T02:56:22.456Z,94023.38
2023-04-18T02:57:14.924Z,94026.93
2023-04-18T02:57:54.537Z,94024.16
2023-04-18T02:59:09.019Z,94028.68
2023-04-18T03:00:37.571Z,94028.17
2023-04-18T03:01:27.305Z,94029.27
2023-04-18T03:02:07.203Z,94028.75
2023-04-18T03:02:42.652Z,94030.88
2023-04-18T03:03:32.739Z,94034.50
2023-04-18T03:04:18.977Z,94033.31
2023-04-18T03:05:02.237Z,94032.65
2023-04-18T03:05:36.619Z,94035.09
2023-04-18T03:06:11.520Z,94032.64
2023-04-18T03:06:46.545Z,94034.07
2023-04-18T03:07:21.566Z,94034.61
2023-04-18T03:07:56.117Z,94033.27
2023-04-18T03:08:30.136Z,94034.77
2023-04-18T03:09:05.808Z,94032.30
2023-04-18T03:09:41.155Z,94033.77
2023-04-18T03:10:23.344Z,94039.70
2023-04-18T03:10:57.543Z,94035.94
2023-04-18T03:11:31.910Z,94034.00
2023-04-18T03:12:08.839Z,94033.35
2023-04-18T03:12:42.953Z,94034.63
2023-04-18T03:13:17.771Z,94031.44
2023-04-18T03:13:52.140Z,94032.23
2023-04-18T03:14:26.705Z,94031.86
2023-04-18T03:15:02.439Z,94035.59
2023-04-18T03:15:36.680Z,94030.05
2023-04-18T03:16:10.437Z,94034.50
2023-04-18T03:16:44.584Z,94034.73
2023-04-18T03:17:20.067Z,94032.73
2023-04-18T03:17:55.813Z,94035.71
2023-04-18T03:18:29.863Z,94041.21
2023-04-18T03:19:05.959Z,94041.73
2023-04-18T03:19:40.627Z,94038.08
2023-04-18T03:20:16.721Z,94043.79
2023-04-18T03:20:56.238Z,94041.65
2023-04-18T03:21:30.149Z,94041.90
2023-04-18T03:22:04.001Z,94040.77
2023-04-18T03:22:37.903Z,94040.67
2023-04-18T03:23:11.831Z,94043.45
2023-04-18T03:23:45.965Z,94039.88
2023-04-18T03:24:19.808Z,94044.52
2023-04-18T03:24:55.530Z,94039.77
2023-04-18T03:25:35.678Z,94036.09
2023-04-18T03:26:09.961Z,94039.61
2023-04-18T03:26:44.518Z,94044.05
2023-04-18T03:27:18.639Z,94041.39
2023-04-18T03:27:52.649Z,94044.52
2023-04-18T03:28:28.216Z,94044.20
2023-04-18T03:29:03.386Z,94040.43
2023-04-18T03:29:37.446Z,94043.96
2023-04-18T03:30:12.800Z,94039.40
2023-04-18T03:30:47.143Z,94039.48
2023-04-18T03:31:21.259Z,94042.54
2023-04-18T03:31:55.103Z,94039.36
2023-04-18T03:32:29.129Z,94042.27
2023-04-18T03:33:03.070Z,94040.02
2023-04-18T03:33:39.494Z,94043.69
2023-04-18T03:34:16.028Z,94038.95
2023-04-18T03:34:51.766Z,94041.73
2023-04-18T03:35:26.423Z,94043.02
2023-04-18T03:36:00.270Z,94045.11
2023-04-18T03:36:34.361Z,94030.39
2023-04-18T03:37:08.218Z,94043.83
2023-04-18T03:37:46.178Z,94042.38
2023-04-18T03:38:24.956Z,94044.38
2023-04-18T03:38:58.898Z,94040.67
2023-04-18T03:39:32.730Z,94037.11
2023-04-18T03:40:07.397Z,94039.92
2023-04-18T03:40:44.827Z,94039.61
2023-04-18T03:41:25.230Z,94037.73
2023-04-18T03:41:59.185Z,94040.27
2023-04-18T03:42:33.186Z,94038.95
2023-04-18T03:43:07.021Z,94040.88
2023-04-18T03:43:40.669Z,94039.29
2023-04-18T03:44:14.740Z,94037.64
2023-04-18T03:44:49.004Z,94029.73
2023-04-18T03:45:22.839Z,94033.75
2023-04-18T03:45:56.824Z,94036.42
2023-04-18T03:46:31.469Z,94036.13
2023-04-18T03:47:08.402Z,94037.66
2023-04-18T03:47:43.085Z,94038.63
2023-04-18T03:48:16.965Z,94040.66
2023-04-18T03:48:50.995Z,94037.23
2023-04-18T03:49:24.864Z,94039.89
2023-04-18T03:49:58.779Z,94039.66
2023-04-18T03:50:33.862Z,94033.75
2023-04-18T03:51:08.447Z,94036.95
2023-04-18T03:51:50.545Z,94041.15
2023-04-18T03:52:24.923Z,94037.80
2023-04-18T03:52:58.686Z,94043.01
2023-04-18T03:53:32.708Z,94038.77
2023-04-18T03:54:07.517Z,94038.61
2023-04-18T03:54:41.464Z,94042.25
2023-04-18T03:55:16.279Z,94042.98
2023-04-18T03:55:51.022Z,94043.86
2023-04-18T03:56:26.223Z,94040.15
2023-04-18T03:57:05.181Z,94038.33
2023-04-18T03:57:43.517Z,94040.34
2023-04-18T03:58:24.014Z,94041.84
2023-04-18T03:58:59.118Z,94041.08
2023-04-18T03:59:33.051Z,94042.20
2023-04-18T04:00:11.214Z,94041.50
2023-04-18T04:00:57.016Z,94041.86
2023-04-18T04:01:30.974Z,94041.52
2023-04-18T04:02:05.112Z,94040.23
2023-04-18T04:02:39.733Z,94038.55
2023-04-18T04:03:13.702Z,94040.17
2023-04-18T04:03:47.808Z,94041.62
2023-04-18T04:04:22.231Z,94041.88
2023-04-18T04:04:57.604Z,94040.91
2023-04-18T04:05:31.618Z,94045.86
2023-04-18T04:06:07.175Z,94043.33
2023-04-18T04:06:41.451Z,94043.58
2023-04-18T04:07:15.191Z,94042.74
2023-04-18T04:07:49.122Z,94042.94
2023-04-18T04:08:22.949Z,94043.48
2023-04-18T04:08:56.815Z,94043.80
2023-04-18T04:09:32.434Z,94046.88
2023-04-18T04:10:07.301Z,94042.58
2023-04-18T04:10:41.125Z,94042.59
2023-04-18T04:11:14.883Z,94046.36
2023-04-18T04:11:49.316Z,94047.56
2023-04-18T04:12:23.401Z,94044.55
2023-04-18T04:12:57.180Z,94047.45
2023-04-18T04:13:32.120Z,94047.16
2023-04-18T04:14:06.328Z,94040.61
2023-04-18T04:14:44.741Z,94047.24
2023-04-18T04:15:18.705Z,94048.40
2023-04-18T04:16:02.904Z,94043.65
2023-04-18T04:16:37.149Z,94046.14
2023-04-18T04:17:11.426Z,94047.74
2023-04-18T04:17:46.480Z,94043.31
2023-04-18T04:18:20.950Z,94040.86
2023-04-18T04:18:54.777Z,94040.83
2023-04-18T04:19:30.661Z,94045.84
2023-04-18T04:20:14.576Z,94044.75
2023-04-18T04:20:51.565Z,94046.63
2023-04-18T04:21:39.466Z,94048.40
2023-04-18T04:22:17.437Z,94046.66
2023-04-18T04:22:52.894Z,94041.85
2023-04-18T04:23:27.453Z,94049.02
2023-04-18T04:24:02.018Z,94050.69
2023-04-18T04:24:40.020Z,94050.48
2023-04-18T04:25:14.111Z,94049.34
2023-04-18T04:25:54.160Z,94054.18
2023-04-18T04:26:43.744Z,94054.09
2023-04-18T04:27:23.517Z,94049.91
2023-04-18T04:27:57.713Z,94048.77
2023-04-18T04:28:32.037Z,94053.25
2023-04-18T04:29:10.445Z,94050.34
2023-04-18T04:29:45.625Z,94051.59
2023-04-18T04:30:20.092Z,94051.55
2023-04-18T04:30:56.293Z,94048.56
2023-04-18T04:31:30.800Z,94053.59
2023-04-18T04:32:06.054Z,94054.67
2023-04-18T04:32:45.030Z,94052.98
2023-04-18T04:33:25.601Z,94053.59
2023-04-18T04:34:00.213Z,94053.21
2023-04-18T04:34:36.066Z,94051.64
2023-04-18T04:35:17.725Z,94055.84
2023-04-18T04:35:55.159Z,94055.33
2023-04-18T04:36:29.549Z,94056.34
2023-04-18T04:37:04.117Z,94055.18
2023-04-18T04:37:44.545Z,94056.70
2023-04-18T04:38:40.925Z,94054.06
2023-04-18T04:39:18.035Z,94053.07
2023-04-18T04:40:09.684Z,94050.80
2023-04-18T04:40:57.733Z,94056.44
2023-04-18T04:41:38.067Z,94055.30
2023-04-18T04:42:12.612Z,94050.46
2023-04-18T04:42:57.056Z,94055.02
2023-04-18T04:43:35.494Z,94055.46
2023-04-18T04:44:09.966Z,94056.33
2023-04-18T04:44:44.234Z,94052.98
2023-04-18T04:45:18.450Z,94052.15
2023-04-18T04:45:53.980Z,94057.45
2023-04-18T04:46:31.303Z,94056.27
2023-04-18T04:47:05.469Z,94059.92
2023-04-18T04:47:41.508Z,94059.48
2023-04-18T04:48:16.047Z,94059.65
2023-04-18T04:48:54.780Z,94058.84
2023-04-18T04:49:28.762Z,94064.05
2023-04-18T04:50:04.781Z,94059.41
2023-04-18T04:50:42.654Z,94059.38
2023-04-18T04:51:18.542Z,94057.92
2023-04-18T04:51:52.739Z,94059.77
2023-04-18T04:52:27.030Z,94058.23
2023-04-18T04:53:01.330Z,94062.41
2023-04-18T04:53:36.272Z,94062.65
2023-04-18T04:54:10.807Z,94059.67
2023-04-18T04:54:46.263Z,94061.71
2023-04-18T04:55:21.016Z,94063.73
2023-04-18T04:55:56.459Z,94061.42
2023-04-18T04:56:30.663Z,94060.70
2023-04-18T04:57:04.757Z,94061.48
2023-04-18T04:57:38.874Z,94063.98
2023-04-18T04:58:22.296Z,94059.36
2023-04-18T04:59:22.628Z,94064.08
2023-04-18T04:59:57.737Z,94062.98
2023-04-18T05:00:31.940Z,94062.23
2023-04-18T05:01:10.942Z,94062.92
2023-04-18T05:01:45.681Z,94062.16
2023-04-18T05:02:23.762Z,94068.61
2023-04-18T05:02:58.249Z,94067.41
2023-04-18T05:03:33.173Z,94069.73
2023-04-18T05:04:07.360Z,94065.32
2023-04-18T05:04:41.583Z,94066.53
2023-04-18T05:05:15.973Z,94067.28
2023-04-18T05:05:49.786Z,94071.44
2023-04-18T05:06:24.809Z,94069.19
2023-04-18T05:06:58.722Z,94067.44
2023-04-18T05:07:32.470Z,94069.38
2023-04-18T05:08:06.659Z,94067.88
2023-04-18T05:08:40.877Z,94073.11
2023-04-18T05:09:14.533Z,94068.48
2023-04-18T05:09:56.731Z,94066.67
2023-04-18T05:11:01.660Z,94055.04
2023-04-18T05:11:38.477Z,94064.00
2023-04-18T05:12:12.583Z,94073.44
2023-04-18T05:12:50.588Z,94071.05
2023-04-18T05:13:24.424Z,94074.81
2023-04-18T05:13:58.417Z,94071.95
2023-04-18T05:14:32.453Z,94073.24
2023-04-18T05:15:07.189Z,94072.34
2023-04-18T05:15:41.565Z,94073.52
2023-04-18T05:16:15.362Z,94075.52
2023-04-18T05:16:49.393Z,94074.94
2023-04-18T05:17:23.453Z,94075.81
2023-04-18T05:17:58.707Z,94075.10
2023-04-18T05:18:34.846Z,94076.48
2023-04-18T05:19:08.770Z,94075.06
2023-04-18T05:19:44.644Z,94077.02
2023-04-18T05:20:18.606Z,94073.88
2023-04-18T05:20:52.597Z,94075.38
2023-04-18T05:21:29.159Z,94079.09
2023-04-18T05:22:03.432Z,94080.98
2023-04-18T05:22:37.453Z,94078.48
2023-04-18T05:23:11.637Z,94077.88
2023-04-18T05:24:14.783Z,94082.39
2023-04-18T05:24:54.701Z,94084.84
2023-04-18T05:25:30.157Z,94084.33
2023-04-18T05:26:07.330Z,94081.80
2023-04-18T05:26:44.762Z,94083.99
2023-04-18T05:27:22.112Z,94085.64
2023-04-18T05:27:57.906Z,94084.42
2023-04-18T05:28:34.564Z,94085.20
2023-04-18T05:29:08.584Z,94087.27
2023-04-18T05:29:42.584Z,94084.48
2023-04-18T05:30:40.791Z,94085.16
2023-04-18T05:31:14.713Z,94088.45
2023-04-18T05:31:51.603Z,94088.27
2023-04-18T05:32:25.537Z,94087.80
2023-04-18T05:32:59.355Z,94083.07
2023-04-18T05:33:33.503Z,94079.76
2023-04-18T05:34:07.485Z,94085.80
2023-04-18T05:34:41.390Z,94085.91
2023-04-18T05:35:15.143Z,94086.23
2023-04-18T05:35:48.803Z,94084.92
2023-04-18T05:36:23.204Z,94069.76
2023-04-18T05:37:03.132Z,94085.45
2023-04-18T05:37:36.980Z,94085.52
2023-04-18T05:38:11.008Z,94089.41
2023-04-18T05:38:44.926Z,94085.91
2023-04-18T05:39:18.865Z,94088.67
2023-04-18T05:39:52.797Z,94087.67
2023-04-18T05:40:30.427Z,94086.78
2023-04-18T05:41:04.624Z,94083.05
2023-04-18T05:41:38.536Z,94083.14
2023-04-18T05:42:12.190Z,94083.83
2023-04-18T05:42:46.216Z,94088.73
2023-04-18T05:43:20.508Z,94086.48
2023-04-18T05:44:04.861Z,94086.85
2023-04-18T05:44:40.001Z,94087.56
2023-04-18T05:45:13.811Z,94086.45
2023-04-18T05:45:48.154Z,94089.77
2023-04-18T05:46:22.098Z,94089.07
2023-04-18T05:46:56.233Z,94089.14
2023-04-18T05:47:30.806Z,94085.63
2023-04-18T05:48:05.044Z,94086.41
2023-04-18T05:48:38.909Z,94086.55
2023-04-18T05:49:13.483Z,94088.66
2023-04-18T05:49:47.152Z,94088.65
2023-04-18T05:50:23.679Z,94084.77
2023-04-18T05:50:58.322Z,94088.39
2023-04-18T05:51:34.862Z,94086.02
2023-04-18T05:52:08.616Z,94090.30
2023-04-18T05:52:42.650Z,94090.27
2023-04-18T05:53:19.203Z,94087.58
2023-04-18T05:53:55.901Z,94087.08
2023-04-18T05:54:29.812Z,94086.08
2023-04-18T05:55:03.839Z,94087.80
2023-04-18T05:55:39.770Z,94087.21
2023-04-18T05:56:13.785Z,94087.21
2023-04-18T05:56:50.539Z,94089.55
2023-04-18T05:57:24.641Z,94092.25
2023-04-18T05:57:58.809Z,94093.94
2023-04-18T05:58:35.263Z,94091.23
2023-04-18T05:59:09.480Z,94094.91
2023-04-18T05:59:43.860Z,94096.67
2023-04-18T06:00:21.294Z,94092.64
2023-04-18T06:00:56.305Z,94096.50
2023-04-18T06:01:30.124Z,94092.03
2023-04-18T06:02:13.770Z,94092.60
2023-04-18T06:02:48.138Z,94093.45
2023-04-18T06:03:24.641Z,94095.86
2023-04-18T06:03:58.901Z,94096.05
2023-04-18T06:04:33.368Z,94097.56
2023-04-18T06:05:08.247Z,94097.69
2023-04-18T06:05:45.244Z,94096.13
2023-04-18T06:06:19.469Z,94096.27
2023-04-18T06:06:53.134Z,94096.83
2023-04-18T06:07:27.064Z,94098.41
2023-04-18T06:08:01.198Z,94096.14
2023-04-18T06:08:35.451Z,94099.83
2023-04-18T06:09:09.289Z,94096.84
2023-04-18T06:09:43.148Z,94097.92
2023-04-18T06:10:17.635Z,94095.35
2023-04-18T06:10:51.531Z,94099.63
2023-04-18T06:11:25.208Z,94095.48
2023-04-18T06:11:59.494Z,94099.36
2023-04-18T06:12:33.245Z,94101.01
2023-04-18T06:13:07.172Z,94102.79
2023-04-18T06:13:41.260Z,94100.86
2023-04-18T06:14:15.222Z,94100.98
2023-04-18T06:14:50.244Z,94101.54
2023-04-18T06:15:24.244Z,94102.04
2023-04-18T06:15:58.461Z,94096.69
2023-04-18T06:16:32.525Z,94095.85
2023-04-18T06:17:10.424Z,94098.45
2023-04-18T06:17:45.041Z,94101.54
2023-04-18T06:18:19.006Z,94101.27
2023-04-18T06:18:55.728Z,94102.39
2023-04-18T06:19:29.557Z,94102.89
2023-04-18T06:20:06.144Z,94100.83
2023-04-18T06:20:40.213Z,94101.43
2023-04-18T06:21:14.769Z,94102.60
2023-04-18T06:21:49.516Z,94103.86
2023-04-18T06:22:23.361Z,94104.29
2023-04-18T06:22:57.197Z,94103.86
2023-04-18T06:23:31.169Z,94102.35
2023-04-18T06:24:04.951Z,94105.38
2023-04-18T06:24:38.798Z,94100.44
2023-04-18T06:25:12.546Z,94101.08
2023-04-18T06:25:46.743Z,94103.19
2023-04-18T06:26:20.703Z,94104.52
2023-04-18T06:26:56.255Z,94103.46
2023-04-18T06:27:31.886Z,94100.41
2023-04-18T06:28:06.096Z,94096.40
2023-04-18T06:28:40.077Z,94099.80
2023-04-18T06:29:13.823Z,94098.02
2023-04-18T06:29:47.736Z,94102.05
2023-04-18T06:30:22.430Z,94102.91
2023-04-18T06:30:59.044Z,94094.91
2023-04-18T06:31:33.103Z,94099.50
2023-04-18T06:32:07.268Z,94103.48
2023-04-18T06:32:41.193Z,94107.30
2023-04-18T06:33:15.037Z,94105.67
2023-04-18T06:33:48.960Z,94105.10
2023-04-18T06:34:22.984Z,94104.49
2023-04-18T06:34:57.268Z,94105.02
2023-04-18T06:35:32.099Z,94102.55
2023-04-18T06:36:07.470Z,94108.71
2023-04-18T06:36:41.507Z,94103.13
2023-04-18T06:37:18.295Z,94104.22
2023-04-18T06:37:52.680Z,94105.52
2023-04-18T06:38:38.122Z,94104.33
2023-04-18T06:39:12.161Z,94107.28
2023-04-18T06:39:46.350Z,94107.27
2023-04-18T06:40:20.271Z,94109.23
2023-04-18T06:40:54.135Z,94110.76
2023-04-18T06:41:27.962Z,94109.86
2023-04-18T06:42:02.965Z,94108.31
2023-04-18T06:42:39.339Z,94105.27
2023-04-18T06:43:13.156Z,94106.47
2023-04-18T06:44:02.028Z,94105.20
2023-04-18T06:44:37.006Z,94106.67
2023-04-18T06:45:12.396Z,94109.02
2023-04-18T06:45:47.583Z,94109.14
2023-04-18T06:46:21.590Z,94108.33
2023-04-18T06:46:56.083Z,94105.02
2023-04-18T06:47:30.687Z,94111.20
2023-04-18T06:48:07.416Z,94104.15
2023-04-18T06:48:41.497Z,94103.59
2023-04-18T06:49:15.390Z,94106.48
2023-04-18T06:49:49.149Z,94108.39
2023-04-18T06:50:23.094Z,94109.56
2023-04-18T06:50:57.201Z,94105.19
2023-04-18T06:51:32.027Z,94105.64
2023-04-18T06:52:08.489Z,94106.53
2023-04-18T06:52:44.835Z,94108.32
2023-04-18T06:53:18.670Z,94106.86
2023-04-18T06:53:55.420Z,94108.19
2023-04-18T06:54:29.533Z,94107.71
2023-04-18T06:55:06.761Z,94108.73
2023-04-18T06:55:41.409Z,94106.74
2023-04-18T06:56:15.254Z,94111.72
2023-04-18T06:56:49.081Z,94112.59
2023-04-18T06:57:23.021Z,94109.28
2023-04-18T06:57:56.789Z,94112.73
2023-04-18T06:58:30.798Z,94111.67
2023-04-18T06:59:04.529Z,94109.02
2023-04-18T06:59:38.284Z,94111.77